Time;durP1;ratioP1;P1;durP2;ratioP2;P2;SDS_P1;SDS_P2;PMS_P1;PMS_P2;Temp;Humidity;BMP_temperature;BMP_pressure;BME280_temperature;BME280_humidity;BME280_pressure;Samples;Min_cycle;Max_cycle;Signal;HPM_P1;HPM_P2
2022/11/23 00:01:18;;;;;;;14.23;3.35;;;;;;;;;;5014080;28;20076;-64
2022/11/23 00:03:48;;;;;;;9.25;3.38;;;;;;;;;;5013614;28;20046;-64
2022/11/23 00:06:16;;;;;;;8.65;2.92;;;;;;;;;;5012556;28;20053;-65
2022/11/23 00:08:43;;;;;;;11.80;4.07;;;;;;;;;;5012928;28;20133;-64
2022/11/23 00:11:10;;;;;;;11.10;3.10;;;;;;;;;;5013592;28;20105;-63
2022/11/23 00:13:38;;;;;;;9.60;2.63;;;;;;;;;;5013554;28;20084;-64
2022/11/23 00:16:07;;;;;;;6.57;2.25;;;;;;;;;;5013550;28;20050;-64
2022/11/23 00:18:33;;;;;;;8.23;2.85;;;;;;;;;;5012958;28;20100;-64
2022/11/23 00:21:05;;;;;;;9.13;2.75;;;;;;;;;;5013253;28;20065;-65
2022/11/23 00:23:32;;;;;;;9.65;2.40;;;;;;;;;;5013443;28;20112;-64
2022/11/23 00:25:58;;;;;;;6.35;2.05;;;;;;;;;;5013474;28;20049;-64
2022/11/23 00:28:25;;;;;;;10.07;2.67;;;;;;;;;;5012681;28;20086;-64
2022/11/23 00:30:52;;;;;;;7.10;2.28;;;;;;;;;;5013267;28;20077;-64
2022/11/23 00:33:18;;;;;;;5.55;2.17;;;;;;;;;;5013511;28;20046;-64
2022/11/23 00:35:45;;;;;;;4.35;2.00;;;;;;;;;;5013268;28;20092;-65
2022/11/23 00:38:11;;;;;;;6.88;3.17;;;;;;;;;;5011811;28;20133;-64
2022/11/23 00:40:38;;;;;;;5.03;2.22;;;;;;;;;;5013126;28;20077;-64
2022/11/23 00:43:05;;;;;;;8.20;2.92;;;;;;;;;;5012976;28;20140;-64
2022/11/23 00:45:31;;;;;;;5.00;2.33;;;;;;;;;;5012806;28;20140;-64
2022/11/23 00:47:58;;;;;;;4.20;2.35;;;;;;;;;;5012233;28;20136;-63
2022/11/23 00:50:24;;;;;;;5.38;2.00;;;;;;;;;;5012568;28;20053;-64
2022/11/23 00:52:51;;;;;;;5.60;2.63;;;;;;;;;;5012873;28;20084;-64
2022/11/23 00:55:17;;;;;;;7.03;2.17;;;;;;;;;;5012752;28;20504;-64
2022/11/23 00:57:44;;;;;;;5.82;2.22;;;;;;;;;;5012461;28;20057;-64
2022/11/23 01:00:11;;;;;;;6.65;2.25;;;;;;;;;;5011798;28;20723;-64
2022/11/23 01:02:38;;;;;;;7.35;2.40;;;;;;;;;;5012653;28;20103;-64
2022/11/23 01:05:04;;;;;;;8.60;2.20;;;;;;;;;;5012655;28;20459;-63
2022/11/23 01:07:31;;;;;;;5.07;2.10;;;;;;;;;;5012525;28;20050;-63
2022/11/23 01:09:58;;;;;;;5.28;2.10;;;;;;;;;;4994881;28;20386;-63
2022/11/23 01:12:24;;;;;;;4.72;2.65;;;;;;;;;;4992868;28;20058;-63
2022/11/23 01:14:52;;;;;;;7.05;1.50;;;;;;;;;;4992670;28;20089;-63
2022/11/23 01:17:19;;;;;;;5.30;2.10;;;;;;;;;;4992843;28;20494;-63
2022/11/23 01:19:46;;;;;;;4.78;1.55;;;;;;;;;;4991833;28;20142;-63
2022/11/23 01:22:12;;;;;;;4.50;1.73;;;;;;;;;;4992664;28;20108;-63
2022/11/23 01:24:39;;;;;;;4.93;1.98;;;;;;;;;;4992589;28;20085;-63
2022/11/23 01:27:05;;;;;;;6.03;1.40;;;;;;;;;;4992584;28;20417;-63
2022/11/23 01:29:32;;;;;;;5.65;1.85;;;;;;;;;;5005327;28;20050;-63
2022/11/23 01:31:59;;;;;;;2.33;1.17;;;;;;;;;;5012087;28;20056;-63
2022/11/23 01:34:25;;;;;;;4.18;1.95;;;;;;;;;;5012276;28;20511;-64
2022/11/23 01:36:52;;;;;;;7.10;1.40;;;;;;;;;;5012232;28;20053;-65
2022/11/23 01:39:19;;;;;;;4.85;1.45;;;;;;;;;;4999447;28;20061;-64
2022/11/23 01:41:45;;;;;;;6.32;1.50;;;;;;;;;;4992305;28;20058;-64
2022/11/23 01:44:25;;;;;;;3.92;1.45;;;;;;;;;;4992593;28;20106;-65
2022/11/23 01:46:53;;;;;;;6.05;2.15;;;;;;;;;;4992440;28;20054;-63
2022/11/23 01:49:20;;;;;;;5.70;1.52;;;;;;;;;;4991496;28;20050;-64
2022/11/23 01:51:48;;;;;;;4.45;1.77;;;;;;;;;;4992251;28;20097;-64
2022/11/23 01:54:37;;;;;;;5.05;1.58;;;;;;;;;;4990972;28;20050;-64
2022/11/23 01:57:10;;;;;;;3.72;1.40;;;;;;;;;;4991234;28;20061;-64
2022/11/23 01:59:36;;;;;;;4.28;1.60;;;;;;;;;;5019290;28;20104;-63
2022/11/23 02:02:03;;;;;;;5.15;1.50;;;;;;;;;;5011784;28;20496;-64
2022/11/23 02:04:35;;;;;;;4.05;1.20;;;;;;;;;;5011682;28;20552;-64
2022/11/23 02:07:02;;;;;;;4.43;1.87;;;;;;;;;;5010664;28;20161;-64
2022/11/23 02:09:32;;;;;;;3.53;1.30;;;;;;;;;;4998967;28;20046;-65
2022/11/23 02:12:00;;;;;;;2.00;1.20;;;;;;;;;;5007291;28;20053;-64
2022/11/23 02:14:26;;;;;;;5.03;1.23;;;;;;;;;;4992384;28;20042;-64
2022/11/23 02:16:54;;;;;;;7.13;2.10;;;;;;;;;;4991015;28;20086;-65
2022/11/23 02:20:07;;;;;;;4.97;1.40;;;;;;;;;;4991328;28;20127;-65
2022/11/23 02:23:05;;;;;;;5.28;1.65;;;;;;;;;;4991656;28;20047;-65
2022/11/23 02:25:46;;;;;;;4.82;1.80;;;;;;;;;;5004901;28;20085;-65
2022/11/23 02:28:18;;;;;;;6.63;1.80;;;;;;;;;;4991489;28;20089;-65
2022/11/23 02:30:45;;;;;;;4.28;1.52;;;;;;;;;;4990831;28;20050;-64
2022/11/23 02:33:12;;;;;;;2.80;1.33;;;;;;;;;;5006877;28;20460;-65
2022/11/23 02:35:48;;;;;;;2.78;1.50;;;;;;;;;;5006970;28;20082;-65
2022/11/23 02:38:15;;;;;;;5.45;1.30;;;;;;;;;;4991186;28;20124;-64
2022/11/23 02:40:42;;;;;;;5.88;1.42;;;;;;;;;;4990591;28;20055;-64
2022/11/23 02:43:08;;;;;;;3.83;1.42;;;;;;;;;;4991846;28;20575;-64
2022/11/23 02:45:49;;;;;;;4.22;1.50;;;;;;;;;;4991878;28;20050;-64
2022/11/23 02:48:16;;;;;;;3.78;1.40;;;;;;;;;;5006226;28;20455;-65
2022/11/23 02:50:44;;;;;;;4.05;1.50;;;;;;;;;;4991565;28;20054;-64
2022/11/23 02:53:10;;;;;;;4.53;1.90;;;;;;;;;;4991948;28;20050;-64
2022/11/23 02:55:37;;;;;;;7.35;1.80;;;;;;;;;;4991814;28;20497;-64
2022/11/23 02:58:04;;;;;;;7.00;1.60;;;;;;;;;;4991212;28;20058;-65
2022/11/23 03:00:32;;;;;;;4.60;1.70;;;;;;;;;;4992150;28;20054;-64
2022/11/23 03:03:00;;;;;;;8.02;1.58;;;;;;;;;;4995253;28;20488;-64
2022/11/23 03:05:26;;;;;;;4.10;1.60;;;;;;;;;;4995164;28;20050;-64
2022/11/23 03:07:53;;;;;;;4.03;1.73;;;;;;;;;;4994706;28;20108;-64
2022/11/23 03:10:20;;;;;;;7.35;2.22;;;;;;;;;;4995099;28;20497;-63
2022/11/23 03:12:47;;;;;;;4.60;1.63;;;;;;;;;;4995267;28;20054;-63
2022/11/23 03:15:14;;;;;;;7.35;1.70;;;;;;;;;;4995278;28;20054;-63
2022/11/23 03:17:40;;;;;;;4.45;1.42;;;;;;;;;;4994769;28;20494;-63
2022/11/23 03:20:07;;;;;;;3.92;1.85;;;;;;;;;;4995248;28;20050;-64
2022/11/23 03:22:34;;;;;;;4.88;1.67;;;;;;;;;;4995018;28;20111;-63
2022/11/23 03:25:00;;;;;;;3.65;1.27;;;;;;;;;;4994944;28;20046;-64
2022/11/23 03:27:28;;;;;;;4.75;1.88;;;;;;;;;;4994974;28;20050;-63
2022/11/23 03:29:54;;;;;;;2.92;1.40;;;;;;;;;;5004907;28;20049;-63
2022/11/23 03:32:21;;;;;;;5.18;1.40;;;;;;;;;;5014371;28;20077;-63
2022/11/23 03:34:47;;;;;;;3.30;1.70;;;;;;;;;;5014586;28;20046;-63
2022/11/23 03:37:14;;;;;;;3.78;1.55;;;;;;;;;;5014582;28;20046;-63
2022/11/23 03:39:41;;;;;;;5.20;1.40;;;;;;;;;;5013045;28;20496;-63
2022/11/23 03:42:12;;;;;;;4.13;1.58;;;;;;;;;;5014287;28;20060;-63
2022/11/23 03:44:39;;;;;;;6.97;1.27;;;;;;;;;;5013987;28;20050;-63
2022/11/23 03:47:06;;;;;;;4.88;1.50;;;;;;;;;;5014516;28;20464;-64
2022/11/23 03:49:32;;;;;;;3.70;1.83;;;;;;;;;;5006066;28;20043;-63
2022/11/23 03:51:59;;;;;;;3.65;2.13;;;;;;;;;;4994397;28;20096;-63
2022/11/23 03:54:26;;;;;;;5.15;1.85;;;;;;;;;;4994467;28;20062;-64
2022/11/23 03:56:52;;;;;;;6.43;2.63;;;;;;;;;;4994507;28;20501;-63
2022/11/23 03:59:20;;;;;;;3.42;1.25;;;;;;;;;;4999050;28;20054;-63
2022/11/23 04:01:47;;;;;;;5.97;1.58;;;;;;;;;;5014241;28;20112;-63
2022/11/23 04:04:13;;;;;;;6.82;1.63;;;;;;;;;;5013866;28;20547;-64
2022/11/23 04:06:40;;;;;;;5.40;1.42;;;;;;;;;;5013961;28;20053;-63
2022/11/23 04:09:07;;;;;;;4.18;1.60;;;;;;;;;;5013093;28;20054;-63
2022/11/23 04:11:33;;;;;;;5.43;1.23;;;;;;;;;;5013874;28;20084;-65
2022/11/23 04:14:00;;;;;;;5.97;1.70;;;;;;;;;;5013516;28;20045;-64
2022/11/23 04:16:26;;;;;;;2.78;1.30;;;;;;;;;;5013495;28;20054;-64
2022/11/23 04:18:53;;;;;;;5.03;1.60;;;;;;;;;;5011219;28;20489;-63
2022/11/23 04:21:20;;;;;;;5.90;1.40;;;;;;;;;;4994065;28;20050;-64
2022/11/23 04:23:46;;;;;;;4.30;1.30;;;;;;;;;;4993867;28;20046;-64
2022/11/23 04:26:13;;;;;;;3.03;1.13;;;;;;;;;;4993952;28;20461;-64
2022/11/23 04:28:39;;;;;;;5.05;1.40;;;;;;;;;;4993393;28;20061;-65
2022/11/23 04:31:06;;;;;;;3.28;1.20;;;;;;;;;;4993865;28;20049;-65
2022/11/23 04:33:33;;;;;;;4.35;1.23;;;;;;;;;;4993858;28;20054;-64
2022/11/23 04:35:59;;;;;;;3.40;1.08;;;;;;;;;;4993703;28;20496;-65
2022/11/23 04:38:26;;;;;;;4.65;1.40;;;;;;;;;;4992964;28;20054;-65
2022/11/23 04:40:52;;;;;;;3.13;1.17;;;;;;;;;;5011047;28;20050;-65
2022/11/23 04:43:19;;;;;;;2.90;1.40;;;;;;;;;;5013491;28;20056;-65
2022/11/23 04:45:46;;;;;;;4.05;1.23;;;;;;;;;;5013114;28;20463;-66
2022/11/23 04:48:12;;;;;;;4.00;1.52;;;;;;;;;;5027734;28;20053;-66
2022/11/23 04:50:40;;;;;;;15.70;4.88;;;;;;;;;;4997921;28;20061;-65
2022/11/23 04:53:12;;;;;;;7.45;3.15;;;;;;;;;;4993387;28;20493;-65
2022/11/23 04:55:38;;;;;;;5.15;1.85;;;;;;;;;;4993287;28;20054;-64
2022/11/23 05:00:37;;;;;;;12.23;2.70;;;;;;;;;;4990255;28;20077;-66
2022/11/23 05:03:04;;;;;;;2.97;1.30;;;;;;;;;;4976317;28;20149;-66
2022/11/23 05:05:31;;;;;;;5.80;1.80;;;;;;;;;;4992842;28;20077;-67
2022/11/23 05:07:58;;;;;;;4.25;1.50;;;;;;;;;;4992545;28;20050;-65
2022/11/23 05:10:24;;;;;;;7.82;1.52;;;;;;;;;;5011415;28;20058;-65
2022/11/23 05:12:51;;;;;;;3.22;1.30;;;;;;;;;;4995003;28;20054;-67
2022/11/23 05:15:18;;;;;;;5.30;1.30;;;;;;;;;;5012836;28;20042;-66
2022/11/23 05:17:44;;;;;;;4.57;1.60;;;;;;;;;;5012393;28;20104;-65
2022/11/23 05:20:11;;;;;;;4.72;1.35;;;;;;;;;;5011837;28;20057;-66
2022/11/23 05:22:37;;;;;;;3.67;1.67;;;;;;;;;;4994971;28;20061;-66
2022/11/23 05:25:04;;;;;;;5.00;1.33;;;;;;;;;;5011797;28;20053;-66
2022/11/23 05:27:31;;;;;;;5.15;1.40;;;;;;;;;;5012936;28;20460;-65
2022/11/23 05:29:58;;;;;;;4.55;1.35;;;;;;;;;;5011271;28;20107;-66
2022/11/23 05:32:25;;;;;;;6.90;1.25;;;;;;;;;;5012392;28;20115;-66
2022/11/23 05:34:51;;;;;;;3.30;1.30;;;;;;;;;;5012321;28;20293;-65
2022/11/23 05:37:18;;;;;;;4.43;1.25;;;;;;;;;;5012191;28;20501;-66
2022/11/23 05:39:44;;;;;;;7.00;1.67;;;;;;;;;;5011926;28;20054;-65
2022/11/23 05:42:11;;;;;;;4.45;1.90;;;;;;;;;;5012515;28;20065;-65
2022/11/23 05:44:38;;;;;;;4.55;2.08;;;;;;;;;;5012030;28;20046;-67
2022/11/23 05:47:04;;;;;;;5.60;1.27;;;;;;;;;;5012154;28;20075;-65
2022/11/23 05:49:31;;;;;;;4.47;1.80;;;;;;;;;;5011574;28;20459;-65
2022/11/23 05:51:58;;;;;;;3.75;1.35;;;;;;;;;;5012057;28;20061;-67
2022/11/23 05:54:24;;;;;;;3.70;1.50;;;;;;;;;;5012096;28;20050;-66
2022/11/23 05:56:51;;;;;;;4.38;2.28;;;;;;;;;;5011409;28;20054;-65
2022/11/23 05:59:18;;;;;;;3.30;1.95;;;;;;;;;;5011023;28;20053;-64
2022/11/23 06:01:44;;;;;;;8.05;2.42;;;;;;;;;;5011912;28;20112;-66
2022/11/23 06:04:12;;;;;;;6.03;3.00;;;;;;;;;;5012034;28;20057;-65
2022/11/23 06:06:38;;;;;;;6.07;2.78;;;;;;;;;;5011960;28;20092;-67
2022/11/23 06:09:05;;;;;;;7.88;2.22;;;;;;;;;;4994273;28;20104;-66
2022/11/23 06:11:32;;;;;;;5.43;1.60;;;;;;;;;;5011901;28;20543;-66
2022/11/23 06:13:58;;;;;;;5.88;2.00;;;;;;;;;;5011896;28;20455;-67
2022/11/23 06:16:25;;;;;;;8.48;1.85;;;;;;;;;;5011511;28;20050;-66
2022/11/23 06:18:52;;;;;;;7.47;1.55;;;;;;;;;;5011086;28;20512;-66
2022/11/23 06:21:19;;;;;;;5.28;1.98;;;;;;;;;;5012046;28;20083;-67
2022/11/23 06:23:46;;;;;;;6.40;2.20;;;;;;;;;;5011946;28;20575;-67
2022/11/23 06:26:13;;;;;;;5.63;2.30;;;;;;;;;;5012157;28;20104;-66
2022/11/23 06:28:40;;;;;;;9.10;1.77;;;;;;;;;;5010767;28;20424;-66
2022/11/23 06:31:07;;;;;;;3.42;1.52;;;;;;;;;;4994262;28;20372;-66
2022/11/23 06:33:33;;;;;;;6.32;2.20;;;;;;;;;;4977222;28;20401;-66
2022/11/23 06:36:01;;;;;;;1.77;1.17;;;;;;;;;;5013043;28;20145;-65
2022/11/23 06:38:28;;;;;;;7.25;1.80;;;;;;;;;;5015115;28;20053;-65
2022/11/23 06:40:59;;;;;;;4.43;1.83;;;;;;;;;;5015722;28;20108;-67
2022/11/23 06:43:26;;;;;;;5.00;2.03;;;;;;;;;;4998199;28;20054;-66
2022/11/23 06:45:56;;;;;;;5.22;1.40;;;;;;;;;;5015402;28;20050;-67
2022/11/23 06:48:23;;;;;;;5.90;1.95;;;;;;;;;;5014790;28;20080;-66
2022/11/23 06:50:49;;;;;;;6.47;2.55;;;;;;;;;;5016758;28;20504;-66
2022/11/23 06:53:16;;;;;;;5.68;1.80;;;;;;;;;;5016472;28;20049;-67
2022/11/23 06:55:43;;;;;;;6.32;1.73;;;;;;;;;;5015710;28;20128;-66
2022/11/23 06:58:10;;;;;;;6.90;1.70;;;;;;;;;;4997229;28;20550;-66
2022/11/23 07:00:36;;;;;;;8.77;1.42;;;;;;;;;;5014766;28;20046;-66
2022/11/23 07:03:03;;;;;;;5.18;2.28;;;;;;;;;;5015052;28;20390;-66
2022/11/23 07:05:30;;;;;;;5.13;1.60;;;;;;;;;;5014904;28;20050;-68
2022/11/23 07:07:56;;;;;;;4.30;1.70;;;;;;;;;;5014510;28;20108;-67
2022/11/23 07:10:24;;;;;;;3.70;1.48;;;;;;;;;;5014825;28;20050;-66
2022/11/23 07:12:51;;;;;;;4.25;1.33;;;;;;;;;;5014788;28;20552;-66
2022/11/23 07:15:17;;;;;;;7.68;1.88;;;;;;;;;;5014732;28;20501;-66
2022/11/23 07:17:44;;;;;;;3.95;1.52;;;;;;;;;;5014808;28;20125;-67
2022/11/23 07:20:11;;;;;;;8.00;2.78;;;;;;;;;;5014197;28;20061;-66
2022/11/23 07:22:38;;;;;;;6.88;2.40;;;;;;;;;;5014976;28;20054;-66
2022/11/23 07:25:05;;;;;;;5.25;2.58;;;;;;;;;;5014648;28;20046;-66
2022/11/23 07:27:32;;;;;;;7.22;3.22;;;;;;;;;;5014870;28;20049;-66
2022/11/23 07:29:58;;;;;;;7.28;2.63;;;;;;;;;;5013857;28;20436;-68
2022/11/23 07:32:25;;;;;;;7.55;2.25;;;;;;;;;;5014516;28;20100;-66
2022/11/23 07:34:52;;;;;;;10.27;2.75;;;;;;;;;;5014770;28;20567;-67
2022/11/23 07:37:18;;;;;;;5.65;2.28;;;;;;;;;;5015465;28;20053;-68
2022/11/23 07:39:45;;;;;;;7.65;2.22;;;;;;;;;;5011014;28;20058;-70
2022/11/23 07:42:23;;;;;;;7.50;2.05;;;;;;;;;;5012112;28;20061;-69
2022/11/23 07:45:00;;;;;;;7.90;1.88;;;;;;;;;;4996249;28;20053;-69
2022/11/23 07:47:26;;;;;;;4.82;2.85;;;;;;;;;;5012091;28;20100;-69
2022/11/23 07:49:53;;;;;;;7.88;2.60;;;;;;;;;;5011621;28;20555;-70
2022/11/23 07:52:20;;;;;;;8.98;2.53;;;;;;;;;;5011785;28;20127;-68
2022/11/23 07:54:46;;;;;;;8.13;2.97;;;;;;;;;;5011793;28;20054;-69
2022/11/23 07:57:13;;;;;;;7.38;2.78;;;;;;;;;;5012290;28;20050;-72
2022/11/23 07:59:40;;;;;;;9.40;3.65;;;;;;;;;;5011043;28;20049;-68
2022/11/23 08:02:09;;;;;;;7.88;2.70;;;;;;;;;;5011850;28;20054;-68
2022/11/23 08:04:36;;;;;;;7.90;2.65;;;;;;;;;;4994135;28;20050;-69
2022/11/23 08:07:02;;;;;;;6.68;2.35;;;;;;;;;;5011866;28;20049;-69
2022/11/23 08:09:29;;;;;;;5.10;2.97;;;;;;;;;;5011110;28;20472;-70
2022/11/23 08:11:56;;;;;;;4.65;2.33;;;;;;;;;;5012324;28;20050;-70
2022/11/23 08:14:23;;;;;;;7.22;2.60;;;;;;;;;;5011725;28;20092;-69
2022/11/23 08:16:50;;;;;;;6.57;2.80;;;;;;;;;;5011705;28;20074;-69
2022/11/23 08:19:17;;;;;;;8.02;2.95;;;;;;;;;;5010762;28;20049;-68
2022/11/23 08:21:44;;;;;;;8.35;2.72;;;;;;;;;;5011242;28;20054;-67
2022/11/23 08:24:10;;;;;;;6.05;2.80;;;;;;;;;;4994293;28;20054;-67
2022/11/23 08:26:37;;;;;;;5.25;1.80;;;;;;;;;;5011397;28;20046;-67
2022/11/23 08:29:04;;;;;;;6.05;1.42;;;;;;;;;;4966290;28;20459;-68
2022/11/23 08:31:31;;;;;;;8.88;2.55;;;;;;;;;;5011386;28;20072;-69
2022/11/23 08:33:58;;;;;;;4.57;1.60;;;;;;;;;;4998188;28;20050;-69
2022/11/23 08:36:29;;;;;;;8.68;2.67;;;;;;;;;;4999189;28;20038;-69
2022/11/23 08:38:55;;;;;;;6.53;2.42;;;;;;;;;;4999450;28;20115;-70
2022/11/23 08:41:22;;;;;;;9.38;2.35;;;;;;;;;;5001958;28;20116;-68
2022/11/23 08:43:49;;;;;;;14.55;2.80;;;;;;;;;;5000325;28;20054;-68
2022/11/23 08:46:16;;;;;;;6.32;1.85;;;;;;;;;;5005313;28;20041;-70
2022/11/23 08:48:43;;;;;;;6.30;2.63;;;;;;;;;;5012182;28;20053;-67
2022/11/23 08:51:09;;;;;;;6.70;1.50;;;;;;;;;;5012982;28;20080;-67
2022/11/23 08:53:36;;;;;;;6.60;2.13;;;;;;;;;;4995598;28;20052;-65
2022/11/23 08:56:04;;;;;;;4.20;1.50;;;;;;;;;;5012922;28;20050;-65
2022/11/23 08:58:31;;;;;;;3.22;1.60;;;;;;;;;;5011185;28;20109;-67
2022/11/23 09:00:58;;;;;;;7.35;1.27;;;;;;;;;;5012927;28;20111;-65
2022/11/23 09:03:24;;;;;;;2.78;1.25;;;;;;;;;;5012581;28;20479;-65
2022/11/23 09:05:53;;;;;;;2.90;1.27;;;;;;;;;;5012882;28;20050;-65
2022/11/23 09:08:19;;;;;;;4.68;1.27;;;;;;;;;;5012408;28;20050;-65
2022/11/23 09:10:46;;;;;;;2.33;1.45;;;;;;;;;;5012539;28;20562;-64
2022/11/23 09:13:12;;;;;;;5.07;1.40;;;;;;;;;;5012802;28;20058;-63
2022/11/23 09:15:39;;;;;;;5.93;1.52;;;;;;;;;;5012679;28;20045;-65
2022/11/23 09:18:06;;;;;;;3.17;1.25;;;;;;;;;;5012096;28;20057;-65
2022/11/23 09:20:32;;;;;;;2.83;1.58;;;;;;;;;;5012730;28;20416;-64
2022/11/23 09:22:59;;;;;;;5.70;1.50;;;;;;;;;;5012453;28;20053;-65
2022/11/23 09:25:26;;;;;;;6.20;1.70;;;;;;;;;;5012701;28;20057;-65
2022/11/23 09:27:57;;;;;;;6.22;1.23;;;;;;;;;;5011923;28;20610;-65
2022/11/23 09:30:24;;;;;;;3.22;1.75;;;;;;;;;;5012203;28;20057;-65
2022/11/23 09:32:51;;;;;;;4.38;1.20;;;;;;;;;;5012371;28;20053;-65
2022/11/23 09:35:18;;;;;;;5.57;1.48;;;;;;;;;;5012452;28;20080;-66
2022/11/23 09:37:44;;;;;;;7.35;1.90;;;;;;;;;;5012248;28;20049;-65
2022/11/23 09:40:15;;;;;;;4.35;1.63;;;;;;;;;;5012004;28;20405;-65
2022/11/23 09:42:49;;;;;;;5.82;2.20;;;;;;;;;;4979015;28;20049;-65
2022/11/23 09:45:17;;;;;;;4.18;1.77;;;;;;;;;;4994695;28;20073;-66
2022/11/23 09:48:12;;;;;;;3.38;1.33;;;;;;;;;;4977478;28;20049;-65
2022/11/23 09:50:51;;;;;;;3.25;1.48;;;;;;;;;;5012029;28;20087;-65
2022/11/23 09:53:29;;;;;;;5.20;1.52;;;;;;;;;;5012172;28;20428;-66
2022/11/23 09:55:56;;;;;;;5.85;1.70;;;;;;;;;;4979515;28;20046;-66
2022/11/23 09:58:24;;;;;;;3.65;1.70;;;;;;;;;;4977975;28;20050;-65
2022/11/23 10:00:56;;;;;;;7.20;2.05;;;;;;;;;;5012021;28;20057;-64
2022/11/23 10:03:22;;;;;;;5.40;1.83;;;;;;;;;;4994741;28;20108;-66
2022/11/23 10:06:02;;;;;;;4.13;1.67;;;;;;;;;;4994562;28;20045;-65
2022/11/23 10:08:31;;;;;;;5.32;1.60;;;;;;;;;;4994613;28;20096;-65
2022/11/23 10:11:36;;;;;;;3.75;1.85;;;;;;;;;;5014696;28;20053;-65
2022/11/23 10:14:13;;;;;;;4.10;1.27;;;;;;;;;;5001228;28;20053;-66
2022/11/23 10:17:06;;;;;;;3.47;1.30;;;;;;;;;;4983552;28;20471;-65
2022/11/23 10:19:57;;;;;;;7.55;1.55;;;;;;;;;;4997885;28;20054;-66
2022/11/23 10:22:51;;;;;;;3.63;1.13;;;;;;;;;;5015725;28;20046;-65
2022/11/23 10:25:19;;;;;;;6.55;1.60;;;;;;;;;;5016110;28;20112;-64
2022/11/23 10:27:47;;;;;;;3.42;1.20;;;;;;;;;;4998261;28;20104;-68
2022/11/23 10:30:15;;;;;;;4.45;1.38;;;;;;;;;;5015719;28;20049;-64
2022/11/23 10:32:57;;;;;;;4.45;1.40;;;;;;;;;;5015814;28;20050;-65
2022/11/23 10:35:28;;;;;;;5.47;1.13;;;;;;;;;;5015729;28;20419;-65
2022/11/23 10:38:11;;;;;;;5.82;1.73;;;;;;;;;;5030165;28;20073;-65
2022/11/23 10:41:15;;;;;;;3.15;1.30;;;;;;;;;;5015411;28;20480;-65
2022/11/23 10:44:04;;;;;;;3.50;1.20;;;;;;;;;;5003889;28;20120;-65
2022/11/23 10:46:38;;;;;;;2.70;1.27;;;;;;;;;;5014321;28;20500;-65
2022/11/23 10:49:22;;;;;;;3.85;1.50;;;;;;;;;;4997485;28;20091;-64
2022/11/23 10:52:07;;;;;;;4.88;1.40;;;;;;;;;;5015107;28;20129;-63
2022/11/23 10:54:34;;;;;;;3.15;1.50;;;;;;;;;;5015310;28;20054;-66
2022/11/23 10:57:23;;;;;;;8.75;2.35;;;;;;;;;;4997848;28;20045;-64
2022/11/23 11:00:08;;;;;;;5.97;1.90;;;;;;;;;;4984019;28;20429;-66
2022/11/23 11:03:02;;;;;;;5.70;2.05;;;;;;;;;;5015576;28;20045;-64
2022/11/23 11:05:36;;;;;;;5.82;1.85;;;;;;;;;;4981265;28;20077;-65
2022/11/23 11:08:48;;;;;;;5.55;2.13;;;;;;;;;;4999863;28;20583;-66
2022/11/23 11:11:24;;;;;;;4.18;1.90;;;;;;;;;;5002305;28;20417;-65
2022/11/23 11:13:51;;;;;;;3.83;2.05;;;;;;;;;;5014859;28;20058;-66
2022/11/23 11:16:24;;;;;;;6.38;1.90;;;;;;;;;;4981119;28;20065;-65
2022/11/23 11:18:51;;;;;;;3.03;1.50;;;;;;;;;;4997088;28;20132;-65
2022/11/23 11:21:20;;;;;;;5.50;2.17;;;;;;;;;;5014277;28;20050;-65
2022/11/23 11:23:54;;;;;;;6.45;1.90;;;;;;;;;;4996994;28;20053;-66
2022/11/23 11:26:22;;;;;;;8.00;2.75;;;;;;;;;;4997453;28;20050;-66
2022/11/23 11:28:50;;;;;;;7.25;2.30;;;;;;;;;;4996478;28;20053;-65
2022/11/23 11:31:47;;;;;;;3.67;1.75;;;;;;;;;;4997375;28;20050;-65
2022/11/23 11:34:21;;;;;;;4.32;1.80;;;;;;;;;;4997247;28;20108;-65
2022/11/23 11:36:59;;;;;;;4.57;1.52;;;;;;;;;;5006282;28;20076;-65
2022/11/23 11:39:34;;;;;;;6.25;2.10;;;;;;;;;;4996840;28;20120;-65
2022/11/23 11:42:03;;;;;;;4.90;1.52;;;;;;;;;;4981189;28;20104;-65
2022/11/23 11:44:30;;;;;;;3.22;1.50;;;;;;;;;;4980965;28;20061;-65
2022/11/23 11:47:00;;;;;;;5.68;1.98;;;;;;;;;;5014171;28;20417;-65
2022/11/23 11:49:32;;;;;;;7.35;2.20;;;;;;;;;;4996029;28;20535;-66
2022/11/23 11:52:31;;;;;;;4.70;2.13;;;;;;;;;;4980826;28;20077;-66
2022/11/23 11:55:03;;;;;;;4.43;1.50;;;;;;;;;;4978887;28;20104;-65
2022/11/23 11:57:35;;;;;;;3.13;1.40;;;;;;;;;;4981005;28;20053;-65
2022/11/23 12:00:06;;;;;;;7.85;1.60;;;;;;;;;;4996045;28;20497;-62
2022/11/23 12:02:42;;;;;;;5.90;1.75;;;;;;;;;;4996559;28;20061;-63
2022/11/23 12:05:29;;;;;;;5.15;1.73;;;;;;;;;;4980984;28;20050;-62
2022/11/23 12:08:20;;;;;;;4.00;1.58;;;;;;;;;;4980351;28;20104;-64
2022/11/23 12:10:51;;;;;;;3.70;1.48;;;;;;;;;;4994568;28;20552;-66
2022/11/23 12:13:22;;;;;;;3.63;1.55;;;;;;;;;;4994079;28;20559;-62
2022/11/23 12:15:59;;;;;;;3.00;1.60;;;;;;;;;;4992674;28;20050;-62
2022/11/23 12:18:37;;;;;;;4.95;1.95;;;;;;;;;;4994934;28;20065;-63
2022/11/23 12:21:44;;;;;;;5.35;1.85;;;;;;;;;;5013498;28;20501;-63
2022/11/23 12:24:58;;;;;;;3.33;1.33;;;;;;;;;;4988500;28;20327;-63
2022/11/23 12:27:38;;;;;;;5.32;1.58;;;;;;;;;;4980276;28;20137;-71
2022/11/23 12:30:51;;;;;;;3.58;1.60;;;;;;;;;;5005199;28;20068;-70
2022/11/23 12:33:30;;;;;;;4.75;1.50;;;;;;;;;;4996333;28;20109;-71
2022/11/23 12:36:04;;;;;;;3.13;1.23;;;;;;;;;;5000244;28;20528;-72
2022/11/23 12:38:43;;;;;;;3.90;1.50;;;;;;;;;;5014637;28;20399;-65
2022/11/23 12:41:47;;;;;;;2.95;1.40;;;;;;;;;;5001100;28;20572;-70
2022/11/23 12:44:32;;;;;;;2.28;1.00;;;;;;;;;;5003064;28;20055;-73
2022/11/23 12:47:08;;;;;;;4.65;1.10;;;;;;;;;;4998945;28;20522;-66
2022/11/23 12:49:57;;;;;;;4.03;1.45;;;;;;;;;;4997345;28;20374;-66
2022/11/23 12:52:33;;;;;;;4.65;1.50;;;;;;;;;;5015653;28;20101;-67
2022/11/23 12:55:22;;;;;;;2.45;1.20;;;;;;;;;;5001537;28;21018;-66
2022/11/23 12:58:03;;;;;;;2.67;0.90;;;;;;;;;;4999648;28;20046;-66
2022/11/23 13:00:33;;;;;;;2.35;0.90;;;;;;;;;;4998715;28;20604;-62
2022/11/23 13:03:37;;;;;;;1.73;0.75;;;;;;;;;;4997348;28;20054;-64
2022/11/23 13:06:16;;;;;;;1.50;0.80;;;;;;;;;;4996183;28;20050;-75
2022/11/23 13:08:48;;;;;;;2.95;1.05;;;;;;;;;;5014142;28;20501;-70
2022/11/23 13:11:53;;;;;;;2.28;0.75;;;;;;;;;;4998552;28;20043;-72
2022/11/23 13:15:05;;;;;;;1.88;0.70;;;;;;;;;;4998568;28;20045;-73
2022/11/23 13:17:54;;;;;;;1.17;0.68;;;;;;;;;;5009904;28;20046;-74
2022/11/23 13:20:30;;;;;;;1.17;0.60;;;;;;;;;;5000992;28;20105;-73
2022/11/23 13:22:56;;;;;;;3.50;0.95;;;;;;;;;;4998692;28;20571;-71
2022/11/23 13:25:27;;;;;;;1.33;0.57;;;;;;;;;;4996605;28;20046;-71
2022/11/23 13:28:00;;;;;;;4.97;1.33;;;;;;;;;;5012891;28;20137;-73
2022/11/23 13:30:28;;;;;;;0.90;0.70;;;;;;;;;;4999229;28;20054;-72
2022/11/23 13:33:15;;;;;;;1.70;0.77;;;;;;;;;;5002834;28;20077;-69
2022/11/23 13:35:41;;;;;;;2.67;0.88;;;;;;;;;;5002728;28;20046;-71
2022/11/23 13:38:14;;;;;;;2.03;0.70;;;;;;;;;;4998939;28;20054;-65
2022/11/23 13:40:43;;;;;;;1.23;0.63;;;;;;;;;;4998218;28;20544;-63
2022/11/23 13:43:21;;;;;;;3.00;1.10;;;;;;;;;;4998263;28;20046;-65
2022/11/23 13:46:18;;;;;;;1.17;0.80;;;;;;;;;;4997183;28;20081;-65
2022/11/23 13:48:52;;;;;;;2.20;0.70;;;;;;;;;;5011100;28;20091;-65
2022/11/23 13:51:30;;;;;;;3.83;1.70;;;;;;;;;;4986706;28;20046;-65
2022/11/23 13:54:05;;;;;;;2.10;0.82;;;;;;;;;;4996222;28;20049;-67
2022/11/23 13:56:39;;;;;;;1.88;0.75;;;;;;;;;;5019871;28;20050;-66
2022/11/23 13:59:21;;;;;;;3.47;1.00;;;;;;;;;;5010451;28;20057;-66
2022/11/23 14:02:06;;;;;;;2.65;0.80;;;;;;;;;;5002657;28;20112;-64
2022/11/23 14:04:34;;;;;;;3.40;0.60;;;;;;;;;;5005223;28;20078;-65
2022/11/23 14:07:10;;;;;;;4.00;1.40;;;;;;;;;;5012368;28;20417;-65
2022/11/23 14:09:52;;;;;;;2.15;0.68;;;;;;;;;;5014469;28;20041;-66
2022/11/23 14:12:40;;;;;;;2.50;0.70;;;;;;;;;;5003994;28;20050;-65
2022/11/23 14:15:14;;;;;;;2.30;0.70;;;;;;;;;;4996282;28;20050;-65
2022/11/23 14:17:40;;;;;;;2.42;0.63;;;;;;;;;;4997198;28;20093;-64
2022/11/23 14:20:13;;;;;;;4.53;1.10;;;;;;;;;;5001921;28;20041;-65
2022/11/23 14:22:51;;;;;;;2.88;0.70;;;;;;;;;;4998078;28;20108;-64
2022/11/23 14:25:27;;;;;;;2.90;0.70;;;;;;;;;;4996907;28;20050;-64
2022/11/23 14:28:11;;;;;;;2.95;0.90;;;;;;;;;;4999589;28;20045;-65
2022/11/23 14:30:48;;;;;;;6.38;1.30;;;;;;;;;;4996416;28;20047;-64
2022/11/23 14:33:20;;;;;;;2.17;0.68;;;;;;;;;;5012221;28;20089;-63
2022/11/23 14:35:57;;;;;;;2.33;0.80;;;;;;;;;;5000156;28;20058;-63
2022/11/23 14:38:43;;;;;;;3.13;0.90;;;;;;;;;;4975259;28;20537;-63
2022/11/23 14:41:18;;;;;;;3.38;0.73;;;;;;;;;;5016443;28;20049;-65
2022/11/23 14:43:45;;;;;;;1.92;0.75;;;;;;;;;;4998971;28;20046;-64
2022/11/23 14:46:18;;;;;;;5.72;0.95;;;;;;;;;;5016132;28;20049;-65
2022/11/23 14:48:46;;;;;;;3.25;1.00;;;;;;;;;;4998501;28;20559;-63
2022/11/23 14:51:26;;;;;;;3.55;1.38;;;;;;;;;;5001119;28;20050;-64
2022/11/23 14:54:00;;;;;;;2.33;0.90;;;;;;;;;;5012601;28;20057;-63
2022/11/23 14:56:47;;;;;;;3.25;0.70;;;;;;;;;;5011913;28;20058;-64
2022/11/23 14:59:21;;;;;;;1.85;0.65;;;;;;;;;;5002444;28;20053;-63
2022/11/23 15:01:56;;;;;;;3.25;1.30;;;;;;;;;;5021594;28;20107;-65
2022/11/23 15:04:24;;;;;;;3.17;0.93;;;;;;;;;;5018085;28;20498;-66
2022/11/23 15:06:53;;;;;;;2.58;1.17;;;;;;;;;;5007908;28;20061;-66
2022/11/23 15:09:34;;;;;;;2.55;0.88;;;;;;;;;;5006967;28;20050;-65
2022/11/23 15:12:19;;;;;;;5.78;1.30;;;;;;;;;;5002161;28;20570;-67